createdAt,value
2022-12-25T00:01:20.991Z,6.32
2022-12-25T00:03:47.828Z,6.37
2022-12-25T00:06:14.829Z,6.39
2022-12-25T00:08:42.325Z,6.41
2022-12-25T00:11:15.226Z,6.42
2022-12-25T00:13:42.009Z,6.45
2022-12-25T00:16:16.128Z,6.45
2022-12-25T00:18:42.776Z,6.45
2022-12-25T00:21:10.910Z,6.46
2022-12-25T00:23:37.485Z,6.49
2022-12-25T00:26:06.463Z,6.48
2022-12-25T00:28:33.180Z,6.53
2022-12-25T00:30:59.800Z,6.59
2022-12-25T00:33:26.470Z,6.63
2022-12-25T00:36:00.558Z,6.66
2022-12-25T00:38:27.705Z,6.65
2022-12-25T00:40:54.631Z,6.65
2022-12-25T00:43:21.289Z,6.67
2022-12-25T00:45:59.280Z,6.71
2022-12-25T00:48:27.232Z,6.75
2022-12-25T00:50:56.010Z,6.76
2022-12-25T00:53:23.866Z,6.81
2022-12-25T00:56:00.929Z,6.84
2022-12-25T00:58:29.792Z,6.86
2022-12-25T01:00:56.791Z,6.87
2022-12-25T01:03:24.557Z,6.90
2022-12-25T01:05:56.941Z,6.91
2022-12-25T01:08:23.613Z,6.91
2022-12-25T01:10:54.681Z,6.90
2022-12-25T01:13:21.668Z,6.92
2022-12-25T01:15:48.379Z,6.93
2022-12-25T01:18:14.939Z,6.95
2022-12-25T01:20:42.317Z,6.98
2022-12-25T01:23:08.805Z,6.99
2022-12-25T01:25:35.378Z,6.98
2022-12-25T01:28:01.939Z,6.98
2022-12-25T01:30:28.584Z,6.98
2022-12-25T01:32:55.013Z,7.02
2022-12-25T01:35:21.596Z,7.04
2022-12-25T01:37:48.153Z,7.07
2022-12-25T01:40:14.658Z,7.09
2022-12-25T01:42:41.093Z,7.10
2022-12-25T01:45:43.598Z,7.10
2022-12-25T01:48:16.697Z,7.08
2022-12-25T01:50:47.029Z,7.09
2022-12-25T01:53:13.878Z,7.05
2022-12-25T01:55:43.867Z,7.01
2022-12-25T01:58:10.488Z,6.98
2022-12-25T02:00:37.015Z,6.99
2022-12-25T02:03:04.006Z,6.99
2022-12-25T02:05:33.385Z,6.97
2022-12-25T02:08:04.471Z,6.94
2022-12-25T02:10:31.068Z,6.91
2022-12-25T02:12:58.277Z,6.86
2022-12-25T02:15:34.169Z,6.82
2022-12-25T02:18:08.984Z,6.76
2022-12-25T02:21:03.238Z,6.75
2022-12-25T02:23:56.323Z,6.71
2022-12-25T02:26:41.814Z,6.72
2022-12-25T02:29:27.178Z,6.70
2022-12-25T02:32:14.384Z,6.69
2022-12-25T02:34:45.330Z,6.66
2022-12-25T02:37:37.093Z,6.66
2022-12-25T02:40:32.895Z,6.65
2022-12-25T02:43:21.169Z,6.66
2022-12-25T02:46:15.838Z,6.68
2022-12-25T02:49:06.722Z,6.65
2022-12-25T02:51:55.645Z,6.65
2022-12-25T02:54:47.093Z,6.64
2022-12-25T02:57:35.910Z,6.63
2022-12-25T03:00:23.732Z,6.66
2022-12-25T03:03:11.719Z,6.66
2022-12-25T03:05:59.536Z,6.70
2022-12-25T03:08:32.494Z,6.74
2022-12-25T03:11:24.434Z,6.80
2022-12-25T03:14:17.799Z,6.81
2022-12-25T03:16:53.708Z,6.75
2022-12-25T03:19:43.015Z,6.73
2022-12-25T03:22:33.781Z,6.73
2022-12-25T03:25:19.257Z,6.80
2022-12-25T03:27:49.112Z,6.87
2022-12-25T03:30:34.448Z,6.95
2022-12-25T03:34:01.126Z,6.97
2022-12-25T03:36:39.057Z,7.03
2022-12-25T03:39:47.207Z,7.06
2022-12-25T03:42:37.469Z,7.11
2022-12-25T03:45:29.722Z,7.12
2022-12-25T03:48:09.600Z,7.14
2022-12-25T03:51:00.353Z,7.15
2022-12-25T03:54:14.976Z,7.17
2022-12-25T03:57:01.968Z,7.21
2022-12-25T03:59:47.026Z,7.20
2022-12-25T04:02:31.990Z,7.22
2022-12-25T04:05:17.260Z,7.23
2022-12-25T04:08:02.232Z,7.24
2022-12-25T04:10:47.724Z,7.19
2022-12-25T04:13:33.875Z,7.10
2022-12-25T04:16:19.498Z,7.04
2022-12-25T04:19:04.715Z,6.98
2022-12-25T04:21:49.787Z,6.91
2022-12-25T04:24:34.699Z,6.92
2022-12-25T04:27:19.539Z,6.91
2022-12-25T04:30:04.465Z,6.90
2022-12-25T04:32:49.544Z,6.89
2022-12-25T04:35:34.992Z,6.88
2022-12-25T04:38:01.999Z,6.91
2022-12-25T04:40:28.614Z,6.89
2022-12-25T04:42:55.062Z,6.87
2022-12-25T04:45:21.536Z,6.85
2022-12-25T04:47:48.176Z,6.81
2022-12-25T04:50:14.683Z,6.77
2022-12-25T04:52:42.325Z,6.75
2022-12-25T04:55:10.929Z,6.75
2022-12-25T04:57:38.042Z,6.73
2022-12-25T05:00:06.081Z,6.71
2022-12-25T05:02:32.834Z,6.71
2022-12-25T05:04:59.521Z,6.74
2022-12-25T05:07:26.023Z,6.72
2022-12-25T05:09:52.730Z,6.69
2022-12-25T05:12:19.322Z,6.68
2022-12-25T05:14:45.859Z,6.66
2022-12-25T05:17:12.431Z,6.64
2022-12-25T05:19:39.059Z,6.63
2022-12-25T05:22:05.671Z,6.59
2022-12-25T05:24:32.249Z,6.56
2022-12-25T05:26:58.728Z,6.57
2022-12-25T05:29:25.315Z,6.57
2022-12-25T05:31:51.933Z,6.57
2022-12-25T05:34:18.572Z,6.55
2022-12-25T05:36:45.111Z,6.55
2022-12-25T05:39:11.579Z,6.51
2022-12-25T05:41:38.079Z,6.49
2022-12-25T05:44:04.719Z,6.50
2022-12-25T05:46:31.305Z,6.50
2022-12-25T05:48:57.860Z,6.51
2022-12-25T05:51:26.079Z,6.52
2022-12-25T05:53:52.637Z,6.53
2022-12-25T05:56:19.136Z,6.52
2022-12-25T05:58:45.706Z,6.52
2022-12-25T06:01:16.939Z,6.52
2022-12-25T06:03:43.833Z,6.53
2022-12-25T06:06:11.581Z,6.56
2022-12-25T06:08:38.198Z,6.60
2022-12-25T06:11:09.365Z,6.62
2022-12-25T06:13:36.192Z,6.64
2022-12-25T06:16:08.962Z,6.65
2022-12-25T06:18:41.004Z,6.67
2022-12-25T06:21:09.297Z,6.71
2022-12-25T06:23:36.723Z,6.72
2022-12-25T06:26:06.252Z,6.71
2022-12-25T06:28:32.804Z,6.71
2022-12-25T06:30:59.401Z,6.69
2022-12-25T06:33:25.941Z,6.72
2022-12-25T06:35:52.495Z,6.75
2022-12-25T06:38:19.023Z,6.77
2022-12-25T06:40:45.762Z,6.83
2022-12-25T06:43:12.282Z,6.88
2022-12-25T06:45:38.848Z,6.92
2022-12-25T06:48:05.672Z,6.95
2022-12-25T06:50:32.263Z,6.97
2022-12-25T06:52:58.717Z,7.00
2022-12-25T06:55:25.205Z,7.06
2022-12-25T06:57:51.728Z,7.14
2022-12-25T07:00:18.451Z,7.16
2022-12-25T07:02:48.449Z,7.17
2022-12-25T07:05:15.065Z,7.17
2022-12-25T07:07:41.584Z,7.20
2022-12-25T07:10:08.770Z,7.23
2022-12-25T07:12:35.325Z,7.24
2022-12-25T07:15:01.796Z,7.25
2022-12-25T07:17:28.390Z,7.26
2022-12-25T07:19:56.581Z,7.26
2022-12-25T07:22:23.087Z,7.28
2022-12-25T07:24:49.561Z,7.28
2022-12-25T07:27:16.093Z,7.29
2022-12-25T07:29:42.614Z,7.29
2022-12-25T07:32:09.408Z,7.29
2022-12-25T07:34:35.924Z,7.30
2022-12-25T07:37:02.618Z,7.32
2022-12-25T07:39:29.255Z,7.32
2022-12-25T07:41:55.795Z,7.33
2022-12-25T07:44:22.337Z,7.34
2022-12-25T07:46:48.888Z,7.33
2022-12-25T07:49:15.455Z,7.35
2022-12-25T07:51:43.412Z,7.33
2022-12-25T07:54:09.974Z,7.34
2022-12-25T07:56:36.542Z,7.36
2022-12-25T07:59:03.290Z,7.37
2022-12-25T08:01:30.448Z,7.37
2022-12-25T08:03:59.792Z,7.39
2022-12-25T08:06:32.930Z,7.41
2022-12-25T08:09:07.066Z,7.41
2022-12-25T08:11:33.932Z,7.42
2022-12-25T08:14:00.529Z,7.45
2022-12-25T08:16:27.118Z,7.47
2022-12-25T08:18:53.679Z,7.48
2022-12-25T08:21:20.265Z,7.50
2022-12-25T08:23:48.332Z,7.50
2022-12-25T08:26:18.125Z,7.52
2022-12-25T08:28:45.334Z,7.52
2022-12-25T08:31:29.358Z,7.53
2022-12-25T08:33:58.312Z,7.54
2022-12-25T08:36:25.228Z,7.57
2022-12-25T08:38:54.584Z,7.55
2022-12-25T08:41:25.208Z,7.55
2022-12-25T08:43:51.708Z,7.57
2022-12-25T08:46:18.417Z,7.57
2022-12-25T08:48:48.680Z,7.59
2022-12-25T08:51:19.060Z,7.61
2022-12-25T08:53:47.373Z,7.62
2022-12-25T08:56:15.215Z,7.63
2022-12-25T08:58:43.269Z,7.65
2022-12-25T09:01:10.199Z,7.66
2022-12-25T09:03:36.952Z,7.66
2022-12-25T09:06:08.381Z,7.67
2022-12-25T09:08:35.856Z,7.69
2022-12-25T09:11:09.055Z,7.71
2022-12-25T09:13:36.910Z,7.71
2022-12-25T09:16:12.668Z,7.71
2022-12-25T09:18:39.356Z,7.73
2022-12-25T09:21:10.568Z,7.74
2022-12-25T09:23:37.118Z,7.76
2022-12-25T09:26:05.540Z,7.76
2022-12-25T09:28:32.297Z,7.77
2022-12-25T09:30:59.460Z,7.79
2022-12-25T09:33:26.090Z,7.79
2022-12-25T09:35:57.418Z,7.79
2022-12-25T09:38:24.487Z,7.82
2022-12-25T09:41:12.855Z,7.84
2022-12-25T09:43:45.468Z,7.85
2022-12-25T09:46:17.058Z,7.87
2022-12-25T09:48:55.210Z,7.88
2022-12-25T09:51:23.780Z,7.91
2022-12-25T09:54:09.308Z,7.92
2022-12-25T09:56:36.947Z,7.96
2022-12-25T09:59:03.745Z,7.99
2022-12-25T10:01:49.223Z,8.02
2022-12-25T10:04:27.587Z,8.01
2022-12-25T10:06:57.033Z,8.01
2022-12-25T10:09:56.667Z,8.00
2022-12-25T10:12:55.364Z,8.01
2022-12-25T10:15:48.064Z,7.98
2022-12-25T10:18:33.775Z,7.98
2022-12-25T10:21:03.949Z,7.98
2022-12-25T10:23:55.708Z,7.99
2022-12-25T10:26:25.437Z,8.00
2022-12-25T10:29:15.032Z,8.02
2022-12-25T10:31:47.013Z,8.01
2022-12-25T10:34:14.786Z,8.03
2022-12-25T10:36:43.729Z,8.04
2022-12-25T10:39:17.389Z,8.04
2022-12-25T10:42:05.060Z,8.06
2022-12-25T10:44:33.240Z,8.06
2022-12-25T10:47:01.663Z,8.06
2022-12-25T10:49:32.858Z,8.08
2022-12-25T10:52:00.172Z,8.09
2022-12-25T10:54:28.212Z,8.07
2022-12-25T10:57:14.649Z,8.10
2022-12-25T10:59:58.991Z,8.12
2022-12-25T11:02:34.452Z,8.12
2022-12-25T11:05:03.203Z,8.13
2022-12-25T11:07:31.132Z,8.15
2022-12-25T11:10:05.731Z,8.17
2022-12-25T11:12:42.004Z,8.19
2022-12-25T11:15:32.248Z,8.22
2022-12-25T11:17:58.843Z,8.20
2022-12-25T11:20:25.802Z,8.19
2022-12-25T11:22:52.645Z,8.20
2022-12-25T11:25:26.155Z,8.18
2022-12-25T11:28:05.828Z,8.17
2022-12-25T11:30:34.638Z,8.19
2022-12-25T11:33:04.985Z,8.21
2022-12-25T11:35:37.332Z,8.25
2022-12-25T11:38:04.026Z,8.27
2022-12-25T11:40:36.754Z,8.30
2022-12-25T11:43:12.678Z,8.33
2022-12-25T11:45:45.490Z,8.38
2022-12-25T11:48:18.009Z,8.41
2022-12-25T11:50:55.680Z,8.46
2022-12-25T11:53:30.600Z,8.53
2022-12-25T11:56:01.953Z,8.55
2022-12-25T11:58:53.019Z,8.56
2022-12-25T12:01:19.669Z,8.56
2022-12-25T12:03:46.422Z,8.57
2022-12-25T12:06:38.107Z,8.56
2022-12-25T12:09:31.825Z,8.53
2022-12-25T12:12:07.547Z,8.49
2022-12-25T12:14:52.851Z,8.48
2022-12-25T12:17:20.041Z,8.48
2022-12-25T12:19:46.614Z,8.50
2022-12-25T12:22:39.726Z,8.52
2022-12-25T12:25:07.983Z,8.50
2022-12-25T12:27:42.973Z,8.50
2022-12-25T12:30:27.129Z,8.50
2022-12-25T12:32:58.666Z,8.50
2022-12-25T12:35:39.953Z,8.51
2022-12-25T12:38:12.855Z,8.50
2022-12-25T12:40:41.200Z,8.51
2022-12-25T12:43:23.925Z,8.50
2022-12-25T12:45:57.055Z,8.49
2022-12-25T12:48:29.176Z,8.49
2022-12-25T12:51:07.160Z,8.48
2022-12-25T12:53:35.101Z,8.48
2022-12-25T12:56:28.258Z,8.45
2022-12-25T12:58:54.767Z,8.45
2022-12-25T13:01:27.342Z,8.44
2022-12-25T13:04:21.010Z,8.42
2022-12-25T13:06:51.382Z,8.42
2022-12-25T13:09:17.867Z,8.42
2022-12-25T13:11:45.127Z,8.40
2022-12-25T13:14:20.606Z,8.40
2022-12-25T13:16:49.892Z,8.38
2022-12-25T13:19:22.262Z,8.37
2022-12-25T13:22:01.075Z,8.36
2022-12-25T13:24:33.113Z,8.35
2022-12-25T13:27:00.308Z,8.36
2022-12-25T13:29:31.565Z,8.36
2022-12-25T13:31:59.505Z,8.38
2022-12-25T13:34:41.587Z,8.37
2022-12-25T13:37:13.229Z,8.37
2022-12-25T13:39:57.415Z,8.35
2022-12-25T13:42:27.427Z,8.35
2022-12-25T13:45:07.768Z,8.34
2022-12-25T13:47:40.767Z,8.31
2022-12-25T13:50:22.548Z,8.31
2022-12-25T13:52:49.601Z,8.30
2022-12-25T13:55:24.725Z,8.32
2022-12-25T13:58:17.203Z,8.32
2022-12-25T14:00:49.739Z,8.31
2022-12-25T14:03:23.569Z,8.29
2022-12-25T14:06:02.241Z,8.29
2022-12-25T14:08:32.106Z,8.29
2022-12-25T14:11:03.674Z,8.29
2022-12-25T14:13:33.127Z,8.28
2022-12-25T14:16:00.698Z,8.29
2022-12-25T14:18:28.267Z,8.31
2022-12-25T14:21:16.821Z,8.31
2022-12-25T14:23:46.887Z,8.30
2022-12-25T14:26:39.768Z,8.30
2022-12-25T14:29:09.235Z,8.30
2022-12-25T14:31:42.473Z,8.31
2022-12-25T14:34:20.695Z,8.32
2022-12-25T14:36:48.694Z,8.32
2022-12-25T14:39:35.740Z,8.32
2022-12-25T14:42:13.756Z,8.33
2022-12-25T14:44:41.322Z,8.32
2022-12-25T14:47:10.801Z,8.32
2022-12-25T14:49:37.775Z,8.32
2022-12-25T14:52:21.106Z,8.32
2022-12-25T14:55:02.818Z,8.32
2022-12-25T14:57:37.690Z,8.30
2022-12-25T15:00:23.882Z,8.30
2022-12-25T15:02:52.942Z,8.33
2022-12-25T15:05:38.297Z,8.33
2022-12-25T15:08:13.827Z,8.33
2022-12-25T15:13:29.325Z,8.33
2022-12-25T15:16:02.485Z,8.34
2022-12-25T15:18:34.378Z,8.31
2022-12-25T15:21:00.940Z,8.31
2022-12-25T15:23:27.534Z,8.32
2022-12-25T15:25:54.130Z,8.33
2022-12-25T15:28:20.874Z,8.33
2022-12-25T15:30:47.802Z,8.34
2022-12-25T15:33:16.195Z,8.33
2022-12-25T15:35:44.312Z,8.32
2022-12-25T15:38:12.689Z,8.31
2022-12-25T15:40:40.214Z,8.32
2022-12-25T15:43:20.906Z,8.31
2022-12-25T15:45:54.035Z,8.31
2022-12-25T15:48:20.639Z,8.29
2022-12-25T15:50:47.210Z,8.30
2022-12-25T15:53:14.179Z,8.31
2022-12-25T15:55:40.979Z,8.30
2022-12-25T15:58:15.221Z,8.29
2022-12-25T16:00:41.774Z,8.27
2022-12-25T16:03:08.398Z,8.25
2022-12-25T16:05:35.339Z,8.22
2022-12-25T16:08:01.889Z,8.18
2022-12-25T16:10:32.143Z,8.15
2022-12-25T16:13:01.526Z,8.17
2022-12-25T16:15:27.983Z,8.19
2022-12-25T16:17:54.597Z,8.21
2022-12-25T16:20:21.182Z,8.22
2022-12-25T16:22:47.737Z,8.23
2022-12-25T16:25:16.819Z,8.23
2022-12-25T16:27:44.015Z,8.25
2022-12-25T16:30:13.675Z,8.24
2022-12-25T16:32:42.355Z,8.26
2022-12-25T16:35:11.096Z,8.26
2022-12-25T16:37:38.155Z,8.27
2022-12-25T16:40:05.503Z,8.24
2022-12-25T16:42:32.057Z,8.25
2022-12-25T16:44:58.580Z,8.24
2022-12-25T16:47:25.830Z,8.24
2022-12-25T16:49:52.418Z,8.22
2022-12-25T16:52:18.975Z,8.21
2022-12-25T16:54:46.810Z,8.22
2022-12-25T16:57:14.602Z,8.23
2022-12-25T16:59:41.653Z,8.24
2022-12-25T17:02:14.412Z,8.26
2022-12-25T17:04:41.053Z,8.26
2022-12-25T17:07:07.540Z,8.26
2022-12-25T17:09:37.483Z,8.26
2022-12-25T17:12:07.928Z,8.24
2022-12-25T17:14:35.125Z,8.22
2022-12-25T17:17:02.531Z,8.22
2022-12-25T17:19:29.355Z,8.20
2022-12-25T17:21:56.028Z,8.19
2022-12-25T17:24:22.664Z,8.18
2022-12-25T17:26:49.189Z,8.20
2022-12-25T17:29:21.675Z,8.19
2022-12-25T17:31:48.812Z,8.20
2022-12-25T17:34:15.438Z,8.21
2022-12-25T17:36:42.049Z,8.21
2022-12-25T17:39:10.678Z,8.22
2022-12-25T17:41:37.219Z,8.23
2022-12-25T17:44:03.921Z,8.23
2022-12-25T17:46:31.203Z,8.24
2022-12-25T17:49:00.098Z,8.23
2022-12-25T17:51:31.215Z,8.21
2022-12-25T17:54:04.513Z,8.22
2022-12-25T17:56:32.493Z,8.21
2022-12-25T17:59:00.890Z,8.21
2022-12-25T18:01:28.875Z,8.20
2022-12-25T18:03:56.003Z,8.20
2022-12-25T18:06:25.979Z,8.20
2022-12-25T18:08:54.722Z,8.20
2022-12-25T18:11:24.009Z,8.19
2022-12-25T18:13:52.299Z,8.19
2022-12-25T18:16:22.121Z,8.16
2022-12-25T18:18:52.275Z,8.15
2022-12-25T18:21:20.826Z,8.15
2022-12-25T18:23:47.741Z,8.14
2022-12-25T18:26:14.909Z,8.12
2022-12-25T18:28:43.758Z,8.12
2022-12-25T18:31:13.777Z,8.12
2022-12-25T18:33:40.973Z,8.13
2022-12-25T18:36:14.985Z,8.12
2022-12-25T18:38:41.826Z,8.14
2022-12-25T18:41:09.335Z,8.14
2022-12-25T18:43:53.158Z,8.14
2022-12-25T18:46:27.267Z,8.13
2022-12-25T18:48:57.234Z,8.14
2022-12-25T18:51:24.810Z,8.12
2022-12-25T18:53:51.795Z,8.13
2022-12-25T18:56:18.859Z,8.13
2022-12-25T18:58:46.214Z,8.13
2022-12-25T19:01:18.902Z,8.12
2022-12-25T19:03:46.352Z,8.13
2022-12-25T19:06:21.339Z,8.12
2022-12-25T19:08:48.518Z,8.13
2022-12-25T19:11:15.740Z,8.13
2022-12-25T19:13:43.018Z,8.12
2022-12-25T19:16:10.189Z,8.12
2022-12-25T19:18:37.897Z,8.11
2022-12-25T19:21:07.032Z,8.09
2022-12-25T19:23:35.079Z,8.09
2022-12-25T19:26:04.751Z,8.09
2022-12-25T19:28:31.440Z,8.09
2022-12-25T19:31:00.574Z,8.09
2022-12-25T19:33:27.173Z,8.10
2022-12-25T19:35:53.685Z,8.11
2022-12-25T19:38:20.400Z,8.11
2022-12-25T19:41:00.417Z,8.10
2022-12-25T19:43:36.463Z,8.12
2022-12-25T19:46:04.663Z,8.12
2022-12-25T19:48:32.608Z,8.13
2022-12-25T19:50:59.316Z,8.13
2022-12-25T19:53:26.743Z,8.13
2022-12-25T19:55:53.877Z,8.13
2022-12-25T19:58:22.398Z,8.15
2022-12-25T20:01:05.119Z,8.14
2022-12-25T20:03:33.048Z,8.14
2022-12-25T20:06:00.103Z,8.14
2022-12-25T20:08:26.604Z,8.15
2022-12-25T20:10:53.147Z,8.15
2022-12-25T20:13:20.253Z,8.15
2022-12-25T20:15:47.458Z,8.15
2022-12-25T20:18:14.474Z,8.15
2022-12-25T20:20:41.073Z,8.16
2022-12-25T20:23:08.145Z,8.16
2022-12-25T20:25:34.699Z,8.17
2022-12-25T20:28:01.288Z,8.18
2022-12-25T20:30:27.755Z,8.18
2022-12-25T20:32:55.303Z,8.18
2022-12-25T20:35:21.801Z,8.17
2022-12-25T20:37:48.334Z,8.19
2022-12-25T20:40:15.016Z,8.19
2022-12-25T20:42:43.270Z,8.20
2022-12-25T20:45:12.405Z,8.20
2022-12-25T20:47:38.969Z,8.19
2022-12-25T20:50:06.562Z,8.21
2022-12-25T20:52:33.039Z,8.20
2022-12-25T20:54:59.689Z,8.21
2022-12-25T20:57:26.297Z,8.21
2022-12-25T20:59:53.558Z,8.21
2022-12-25T21:02:34.136Z,8.22
2022-12-25T21:05:04.331Z,8.23
2022-12-25T21:07:30.824Z,8.23
2022-12-25T21:09:57.370Z,8.21
2022-12-25T21:12:23.872Z,8.21
2022-12-25T21:14:50.811Z,8.22
2022-12-25T21:17:17.659Z,8.22
2022-12-25T21:19:44.294Z,8.23
2022-12-25T21:22:10.896Z,8.24
2022-12-25T21:24:37.441Z,8.25
2022-12-25T21:27:04.073Z,8.25
2022-12-25T21:29:30.882Z,8.26
2022-12-25T21:32:16.119Z,8.26
2022-12-25T21:34:42.747Z,8.25
2022-12-25T21:37:09.542Z,8.26
2022-12-25T21:39:36.096Z,8.27
2022-12-25T21:42:04.595Z,8.27
2022-12-25T21:44:31.204Z,8.28
2022-12-25T21:46:57.739Z,8.29
2022-12-25T21:49:42.928Z,8.30
2022-12-25T21:52:09.554Z,8.31
2022-12-25T21:54:36.521Z,8.31
2022-12-25T21:57:03.562Z,8.31
2022-12-25T21:59:30.153Z,8.33
2022-12-25T22:01:56.830Z,8.33
2022-12-25T22:04:23.778Z,8.33
2022-12-25T22:07:09.287Z,8.34
2022-12-25T22:09:35.961Z,8.35
2022-12-25T22:12:22.113Z,8.35
2022-12-25T22:14:56.684Z,8.34
2022-12-25T22:17:47.658Z,8.36
2022-12-25T22:20:27.291Z,8.36
2022-12-25T22:22:54.747Z,8.38
2022-12-25T22:25:21.581Z,8.38
2022-12-25T22:27:48.738Z,8.38
2022-12-25T22:30:18.827Z,8.38
2022-12-25T22:32:46.318Z,8.37
2022-12-25T22:35:14.138Z,8.38
2022-12-25T22:37:42.519Z,8.39
2022-12-25T22:40:12.504Z,8.40
2022-12-25T22:42:39.191Z,8.40
2022-12-25T22:45:06.362Z,8.42
2022-12-25T22:47:33.151Z,8.41
2022-12-25T22:49:59.822Z,8.40
2022-12-25T22:52:26.456Z,8.39
2022-12-25T22:54:52.989Z,8.40
2022-12-25T22:57:19.664Z,8.39
2022-12-25T22:59:46.269Z,8.41
2022-12-25T23:02:13.057Z,8.41
2022-12-25T23:04:39.719Z,8.41
2022-12-25T23:07:06.270Z,8.42
2022-12-25T23:09:32.858Z,8.42
2022-12-25T23:11:59.652Z,8.43
2022-12-25T23:14:39.405Z,8.44
2022-12-25T23:17:30.556Z,8.43
2022-12-25T23:20:17.549Z,8.45
2022-12-25T23:23:02.808Z,8.45
2022-12-25T23:25:48.140Z,8.45
2022-12-25T23:28:14.726Z,8.44
2022-12-25T23:30:41.187Z,8.45
2022-12-25T23:33:07.666Z,8.44
2022-12-25T23:35:34.271Z,8.46
2022-12-25T23:38:00.788Z,8.44
2022-12-25T23:40:27.241Z,8.45
2022-12-25T23:42:53.787Z,8.45
2022-12-25T23:45:20.268Z,8.46
2022-12-25T23:47:46.687Z,8.46
2022-12-25T23:50:13.224Z,8.48
2022-12-25T23:52:39.928Z,8.49
2022-12-25T23:55:07.123Z,8.48
2022-12-25T23:57:33.698Z,8.50
